Terminal Aerodrome Forecast
Issued by NWS Pocatello, ID

Home | Current Version | Previous Version | Text Only | Print | Product List | Glossary On
Versions: 1 2 3 4 5 6 7 8 9 10 11 12 13 14 15
777
FTUS45 KPIH 270520
TAFIDA
TAF
KIDA 270520Z 2706/2806 19008KT P6SM SCT040 BKN050
     FM270900 19008KT P6SM VCSH BKN030 BKN100
     FM272100 24011KT P6SM -SHRA VCTS BKN030CB
     FM280200 33011KT P6SM -SHRA BKN030=

USA.gov is the U.S. government's official web portal to all federal, state and local government web resources and services.